Mesa, Mississippi
Current Conditions -  °F | °C
As of 9:53 AM on Friday 28 Nov 2014 (Local Time) from KMCB Reporting Station
Clear Clear  
Wind Chill: 43°   Ceiling: Unl
Heat Index: 47°   Visibility: 10mi
Dew Point: 29°   Wind: 8mph
Humidity: 50%   Direction: 120°ESE
Pressure: 30.43"   Gusts: NA
Location:  31.1485°N, 90.1061°W
Report Text: KMCB 281553Z AUTO 12007KT 10SM CLR 08/M02 A3043 RMK AO2 SLP305 T00831017
Loading
Personal Weather Stations






























Interactive Weather Map New forecast layout! Learn more

10-Day Weather Forecast

Advertisements
Track Severe Weather on mobile